createdAt,value
2023-05-01T00:01:47.537Z,98656.25
2023-05-01T00:04:17.176Z,98648.59
2023-05-01T00:06:45.449Z,98650.25
2023-05-01T00:09:13.639Z,98651.47
2023-05-01T00:11:41.981Z,98637.47
2023-05-01T00:14:09.999Z,98649.28
2023-05-01T00:16:39.517Z,98641.84
2023-05-01T00:19:08.852Z,98634.16
2023-05-01T00:21:37.253Z,98637.28
2023-05-01T00:24:05.827Z,98631.19
2023-05-01T00:26:33.910Z,98630.59
2023-05-01T00:29:03.157Z,98623.53
2023-05-01T00:31:37.190Z,98623.22
2023-05-01T00:34:06.581Z,98620.31
2023-05-01T00:36:34.834Z,98617.34
2023-05-01T00:39:02.828Z,98621.53
2023-05-01T00:41:30.796Z,98613.41
2023-05-01T00:43:58.980Z,98610.28
2023-05-01T00:46:27.712Z,98611.50
2023-05-01T00:48:55.873Z,98613.25
2023-05-01T00:51:28.157Z,98610.53
2023-05-01T00:54:00.970Z,98601.88
2023-05-01T00:56:29.285Z,98603.38
2023-05-01T00:58:57.571Z,98598.25
2023-05-01T01:01:26.283Z,98608.44
2023-05-01T01:03:54.843Z,98598.16
2023-05-01T01:06:34.906Z,98597.53
2023-05-01T01:09:14.653Z,98595.50
2023-05-01T01:11:53.408Z,98598.16
2023-05-01T01:14:27.677Z,98589.78
2023-05-01T01:17:04.580Z,98582.25
2023-05-01T01:20:02.863Z,98584.75
2023-05-01T01:22:36.580Z,98580.31
2023-05-01T01:25:31.155Z,98572.50
2023-05-01T01:28:36.975Z,98577.94
2023-05-01T01:31:15.299Z,98572.09
2023-05-01T01:34:09.574Z,98571.06
2023-05-01T01:36:44.649Z,98567.22
2023-05-01T01:39:20.276Z,98572.28
2023-05-01T01:41:52.565Z,98570.38
2023-05-01T01:44:29.687Z,98567.47
2023-05-01T01:47:00.854Z,98574.91
2023-05-01T01:49:32.644Z,98572.94
2023-05-01T01:52:03.153Z,98569.91
2023-05-01T01:54:34.684Z,98573.03
2023-05-01T01:57:08.527Z,98571.66
2023-05-01T01:59:36.784Z,98572.56
2023-05-01T02:02:06.818Z,98564.69
2023-05-01T02:04:37.520Z,98564.66
2023-05-01T02:07:07.283Z,98555.97
2023-05-01T02:09:37.136Z,98554.03
2023-05-01T02:12:08.476Z,98552.56
2023-05-01T02:14:38.461Z,98550.03
2023-05-01T02:17:07.656Z,98549.63
2023-05-01T02:19:40.845Z,98541.00
2023-05-01T02:22:10.466Z,98542.31
2023-05-01T02:24:40.014Z,98550.50
2023-05-01T02:27:12.599Z,98546.34
2023-05-01T02:29:41.006Z,98545.19
2023-05-01T02:32:09.274Z,98537.25
2023-05-01T02:34:42.173Z,98539.19
2023-05-01T02:37:12.583Z,98534.78
2023-05-01T02:39:43.163Z,98526.59
2023-05-01T02:42:14.122Z,98532.31
2023-05-01T02:44:50.925Z,98521.28
2023-05-01T02:47:22.021Z,98521.03
2023-05-01T02:49:53.943Z,98520.69
2023-05-01T02:52:23.174Z,98520.94
2023-05-01T02:55:00.617Z,98514.09
2023-05-01T02:57:29.355Z,98516.59
2023-05-01T02:59:57.728Z,98518.31
2023-05-01T03:02:26.130Z,98520.97
2023-05-01T03:04:58.873Z,98509.78
2023-05-01T03:07:27.049Z,98505.22
2023-05-01T03:09:55.503Z,98508.88
2023-05-01T03:12:24.011Z,98512.69
2023-05-01T03:14:52.516Z,98516.19
2023-05-01T03:17:20.475Z,98511.88
2023-05-01T03:19:49.557Z,98514.94
2023-05-01T03:22:20.228Z,98512.31
2023-05-01T03:24:48.269Z,98515.59
2023-05-01T03:27:16.405Z,98502.44
2023-05-01T03:29:44.538Z,98505.00
2023-05-01T03:32:12.729Z,98501.66
2023-05-01T03:34:41.277Z,98502.53
2023-05-01T03:37:09.277Z,98507.03
2023-05-01T03:39:38.936Z,98496.41
2023-05-01T03:42:26.279Z,98502.13
2023-05-01T03:45:00.499Z,98495.16
2023-05-01T03:47:30.329Z,98497.81
2023-05-01T03:49:59.074Z,98496.28
2023-05-01T03:52:27.725Z,98489.78
2023-05-01T03:54:59.527Z,98488.47
2023-05-01T03:57:48.326Z,98482.22
2023-05-01T04:00:18.952Z,98487.72
2023-05-01T04:02:49.296Z,98485.78
2023-05-01T04:05:22.135Z,98486.75
2023-05-01T04:07:58.220Z,98484.81
2023-05-01T04:10:28.379Z,98494.03
2023-05-01T04:13:01.323Z,98490.13
2023-05-01T04:15:29.208Z,98487.94
2023-05-01T04:17:57.774Z,98497.94
2023-05-01T04:20:25.864Z,98490.38
2023-05-01T04:22:54.988Z,98485.31
2023-05-01T04:25:23.001Z,98488.06
2023-05-01T04:27:55.640Z,98487.59
2023-05-01T04:30:23.631Z,98481.72
2023-05-01T04:32:52.811Z,98489.63
2023-05-01T04:35:21.113Z,98484.25
2023-05-01T04:37:49.078Z,98490.63
2023-05-01T04:40:17.455Z,98489.66
2023-05-01T04:42:46.069Z,98489.66
2023-05-01T04:45:17.219Z,98493.97
2023-05-01T04:47:45.314Z,98492.19
2023-05-01T04:50:13.325Z,98495.44
2023-05-01T04:52:41.626Z,98490.50
2023-05-01T04:55:11.425Z,98487.13
2023-05-01T04:57:48.300Z,98487.63
2023-05-01T05:00:19.102Z,98484.38
2023-05-01T05:02:54.218Z,98489.16
2023-05-01T05:05:22.554Z,98488.34
2023-05-01T05:07:51.479Z,98490.38
2023-05-01T05:10:30.274Z,98494.72
2023-05-01T05:13:27.382Z,98497.22
2023-05-01T05:16:15.761Z,98496.84
2023-05-01T05:18:43.903Z,98498.06
2023-05-01T05:21:12.398Z,98495.19
2023-05-01T05:23:46.060Z,98486.66
2023-05-01T05:26:13.980Z,98493.47
2023-05-01T05:28:45.179Z,98488.44
2023-05-01T05:31:15.210Z,98486.03
2023-05-01T05:33:43.344Z,98484.63
2023-05-01T05:36:12.034Z,98480.16
2023-05-01T05:38:43.234Z,98487.13
2023-05-01T05:41:15.281Z,98486.38
2023-05-01T05:43:43.453Z,98488.41
2023-05-01T05:46:11.687Z,98481.47
2023-05-01T05:48:42.135Z,98482.91
2023-05-01T05:51:10.709Z,98490.63
2023-05-01T05:53:38.756Z,98490.84
2023-05-01T05:56:07.809Z,98494.09
2023-05-01T05:58:35.960Z,98486.78
2023-05-01T06:01:04.196Z,98493.25
2023-05-01T06:03:32.753Z,98493.72
2023-05-01T06:06:04.683Z,98488.41
2023-05-01T06:08:35.425Z,98490.06
2023-05-01T06:11:12.244Z,98494.91
2023-05-01T06:13:44.930Z,98483.72
2023-05-01T06:16:13.021Z,98490.00
2023-05-01T06:18:41.099Z,98495.06
2023-05-01T06:21:12.104Z,98483.88
2023-05-01T06:23:41.584Z,98493.63
2023-05-01T06:26:34.802Z,98488.38
2023-05-01T06:29:16.709Z,98482.38
2023-05-01T06:31:45.753Z,98487.25
2023-05-01T06:34:13.777Z,98488.09
2023-05-01T06:36:50.842Z,98493.97
2023-05-01T06:39:18.817Z,98498.09
2023-05-01T06:41:47.485Z,98503.13
2023-05-01T06:44:16.371Z,98503.25
2023-05-01T06:46:44.436Z,98503.09
2023-05-01T06:49:13.889Z,98492.63
2023-05-01T06:51:42.002Z,98503.09
2023-05-01T06:54:11.382Z,98512.75
2023-05-01T06:56:39.760Z,98506.28
2023-05-01T06:59:07.723Z,98509.97
2023-05-01T07:01:35.826Z,98511.59
2023-05-01T07:04:04.090Z,98512.84
2023-05-01T07:06:32.570Z,98507.41
2023-05-01T07:09:00.567Z,98502.97
2023-05-01T07:11:29.944Z,98515.41
2023-05-01T07:13:57.924Z,98521.59
2023-05-01T07:16:26.137Z,98514.81
2023-05-01T07:18:54.087Z,98520.66
2023-05-01T07:21:47.474Z,98517.41
2023-05-01T07:24:15.312Z,98516.78
2023-05-01T07:26:44.699Z,98515.91
2023-05-01T07:29:13.269Z,98508.66
2023-05-01T07:31:41.938Z,98510.63
2023-05-01T07:34:10.272Z,98518.59
2023-05-01T07:36:38.808Z,98509.81
2023-05-01T07:39:07.345Z,98510.22
2023-05-01T07:41:37.636Z,98504.03
2023-05-01T07:44:07.010Z,98505.72
2023-05-01T07:46:35.241Z,98505.91
2023-05-01T07:49:04.241Z,98505.25
2023-05-01T07:51:32.658Z,98497.66
2023-05-01T07:54:04.875Z,98502.72
2023-05-01T07:56:33.343Z,98501.34
2023-05-01T07:59:03.586Z,98505.22
2023-05-01T08:01:35.121Z,98502.63
2023-05-01T08:04:03.094Z,98502.94
2023-05-01T08:06:31.833Z,98497.88
2023-05-01T08:09:03.075Z,98496.66
2023-05-01T08:11:33.445Z,98495.03
2023-05-01T08:14:01.418Z,98490.75
2023-05-01T08:16:29.427Z,98490.03
2023-05-01T08:18:58.852Z,98485.84
2023-05-01T08:21:26.832Z,98481.47
2023-05-01T08:23:57.038Z,98483.44
2023-05-01T08:26:25.219Z,98488.75
2023-05-01T08:28:53.203Z,98486.69
2023-05-01T08:31:21.408Z,98486.44
2023-05-01T08:33:49.598Z,98478.28
2023-05-01T08:36:21.254Z,98487.09
2023-05-01T08:38:49.478Z,98492.28
2023-05-01T08:41:17.932Z,98488.34
2023-05-01T08:43:45.958Z,98477.91
2023-05-01T08:46:16.828Z,98483.59
2023-05-01T08:48:46.970Z,98485.56
2023-05-01T08:51:22.996Z,98479.28
2023-05-01T08:53:54.112Z,98480.31
2023-05-01T08:56:24.055Z,98476.91
2023-05-01T08:58:55.309Z,98475.28
2023-05-01T09:01:24.595Z,98488.00
2023-05-01T09:03:54.836Z,98486.25
2023-05-01T09:06:25.854Z,98485.09
2023-05-01T09:08:54.050Z,98487.38
2023-05-01T09:11:25.390Z,98484.03
2023-05-01T09:13:55.931Z,98476.59
2023-05-01T09:16:24.772Z,98484.41
2023-05-01T09:18:56.497Z,98486.66
2023-05-01T09:21:29.324Z,98479.81
2023-05-01T09:23:57.439Z,98479.09
2023-05-01T09:26:26.877Z,98479.50
2023-05-01T09:28:58.065Z,98478.81
2023-05-01T09:31:29.080Z,98491.09
2023-05-01T09:33:59.510Z,98481.78
2023-05-01T09:36:34.821Z,98486.06
2023-05-01T09:39:06.007Z,98485.22
2023-05-01T09:41:39.237Z,98487.28
2023-05-01T09:44:22.065Z,98496.78
2023-05-01T09:47:12.670Z,98490.19
2023-05-01T09:49:53.952Z,98491.66
2023-05-01T09:52:37.340Z,98481.81
2023-05-01T09:55:18.524Z,98477.59
2023-05-01T09:57:59.753Z,98473.75
2023-05-01T10:00:31.115Z,98477.84
2023-05-01T10:02:59.195Z,98470.50
2023-05-01T10:05:44.170Z,98468.94
2023-05-01T10:08:15.142Z,98476.06
2023-05-01T10:10:47.153Z,98482.28
2023-05-01T10:13:16.139Z,98475.19
2023-05-01T10:15:47.671Z,98475.94
2023-05-01T10:18:34.341Z,98470.47
2023-05-01T10:21:17.100Z,98472.13
2023-05-01T10:23:48.029Z,98475.38
2023-05-01T10:26:19.581Z,98471.66
2023-05-01T10:28:49.548Z,98473.38
2023-05-01T10:31:19.441Z,98469.25
2023-05-01T10:33:48.646Z,98471.19
2023-05-01T10:36:23.073Z,98471.03
2023-05-01T10:38:54.185Z,98467.34
2023-05-01T10:41:55.604Z,98467.16
2023-05-01T10:44:25.728Z,98470.00
2023-05-01T10:46:56.073Z,98473.91
2023-05-01T10:49:24.529Z,98464.91
2023-05-01T10:52:03.776Z,98475.44
2023-05-01T10:54:33.155Z,98470.44
2023-05-01T10:57:03.543Z,98469.78
2023-05-01T11:00:11.204Z,98464.34
2023-05-01T11:02:39.469Z,98461.38
2023-05-01T11:05:08.080Z,98466.31
2023-05-01T11:07:36.240Z,98463.97
2023-05-01T11:10:28.778Z,98461.91
2023-05-01T11:12:56.918Z,98462.28
2023-05-01T11:15:32.306Z,98459.94
2023-05-01T11:18:00.999Z,98460.69
2023-05-01T11:20:51.729Z,98462.75
2023-05-01T11:23:22.133Z,98454.72
2023-05-01T11:25:51.704Z,98457.00
2023-05-01T11:28:22.957Z,98445.50
2023-05-01T11:30:51.620Z,98451.25
2023-05-01T11:33:27.626Z,98441.78
2023-05-01T11:36:03.192Z,98440.91
2023-05-01T11:38:31.092Z,98447.13
2023-05-01T11:41:05.586Z,98448.31
2023-05-01T11:43:34.134Z,98447.94
2023-05-01T11:46:05.178Z,98438.53
2023-05-01T11:48:33.466Z,98444.28
2023-05-01T11:51:01.619Z,98437.56
2023-05-01T11:53:30.349Z,98443.28
2023-05-01T11:55:59.472Z,98440.88
2023-05-01T11:58:36.619Z,98442.53
2023-05-01T12:01:07.255Z,98442.44
2023-05-01T12:03:43.123Z,98442.81
2023-05-01T12:06:15.051Z,98445.91
2023-05-01T12:08:45.526Z,98433.75
2023-05-01T12:11:13.774Z,98437.91
2023-05-01T12:13:43.975Z,98434.44
2023-05-01T12:16:12.184Z,98432.88
2023-05-01T12:18:42.155Z,98436.06
2023-05-01T12:21:25.811Z,98436.06
2023-05-01T12:23:56.254Z,98422.41
2023-05-01T12:26:26.288Z,98429.94
2023-05-01T12:28:58.254Z,98426.19
2023-05-01T12:31:27.510Z,98426.38
2023-05-01T12:33:58.619Z,98424.94
2023-05-01T12:36:29.439Z,98422.78
2023-05-01T12:39:00.742Z,98430.22
2023-05-01T12:41:39.188Z,98425.44
2023-05-01T12:44:23.921Z,98425.38
2023-05-01T12:46:56.437Z,98427.28
2023-05-01T12:49:26.002Z,98424.59
2023-05-01T12:51:55.456Z,98429.41
2023-05-01T12:54:26.370Z,98425.50
2023-05-01T12:57:06.583Z,98436.78
2023-05-01T12:59:37.462Z,98436.66
2023-05-01T13:02:07.124Z,98426.53
2023-05-01T13:04:37.827Z,98430.84
2023-05-01T13:07:12.651Z,98429.09
2023-05-01T13:09:53.178Z,98419.16
2023-05-01T13:12:21.473Z,98417.50
2023-05-01T13:14:51.806Z,98416.81
2023-05-01T13:17:26.049Z,98406.38
2023-05-01T13:19:55.916Z,98419.53
2023-05-01T13:22:32.438Z,98411.84
2023-05-01T13:25:01.387Z,98409.47
2023-05-01T13:27:29.860Z,98418.88
2023-05-01T13:30:01.183Z,98416.16
2023-05-01T13:32:33.113Z,98416.59
2023-05-01T13:35:03.221Z,98423.22
2023-05-01T13:37:32.524Z,98419.09
2023-05-01T13:40:00.808Z,98420.84
2023-05-01T13:42:29.131Z,98424.06
2023-05-01T13:45:06.261Z,98420.34
2023-05-01T13:47:34.442Z,98421.16
2023-05-01T13:50:02.690Z,98424.31
2023-05-01T13:52:33.550Z,98425.13
2023-05-01T13:55:08.465Z,98430.34
2023-05-01T13:57:40.562Z,98427.00
2023-05-01T14:00:17.541Z,98423.34
2023-05-01T14:02:48.394Z,98422.34
2023-05-01T14:05:17.283Z,98429.19
2023-05-01T14:07:52.035Z,98425.69
2023-05-01T14:10:20.478Z,98425.22
2023-05-01T14:12:48.649Z,98433.06
2023-05-01T14:15:18.937Z,98424.50
2023-05-01T14:17:48.530Z,98417.44
2023-05-01T14:20:18.141Z,98420.91
2023-05-01T14:22:51.681Z,98412.63
2023-05-01T14:25:27.468Z,98412.09
2023-05-01T14:27:56.666Z,98405.31
2023-05-01T14:30:30.084Z,98404.09
2023-05-01T14:32:58.335Z,98409.91
2023-05-01T14:35:26.540Z,98413.63
2023-05-01T14:37:55.511Z,98417.41
2023-05-01T14:40:33.876Z,98409.00
2023-05-01T14:43:02.687Z,98406.66
2023-05-01T14:45:32.441Z,98419.78
2023-05-01T14:48:00.558Z,98414.13
2023-05-01T14:50:28.680Z,98418.31
2023-05-01T14:52:57.935Z,98421.97
2023-05-01T14:55:29.410Z,98426.56
2023-05-01T14:57:58.268Z,98424.47
2023-05-01T15:00:26.798Z,98427.88
2023-05-01T15:02:56.482Z,98430.69
2023-05-01T15:05:26.178Z,98430.00
2023-05-01T15:07:56.445Z,98441.84
2023-05-01T15:10:24.915Z,98436.78
2023-05-01T15:12:53.286Z,98437.50
2023-05-01T15:15:21.936Z,98437.22
2023-05-01T15:17:52.230Z,98434.38
2023-05-01T15:20:21.842Z,98441.72
2023-05-01T15:22:49.843Z,98433.19
2023-05-01T15:25:18.464Z,98436.09
2023-05-01T15:27:47.229Z,98430.91
2023-05-01T15:30:16.165Z,98424.69
2023-05-01T15:32:44.206Z,98423.88
2023-05-01T15:35:12.904Z,98427.56
2023-05-01T15:37:44.005Z,98429.56
2023-05-01T15:40:12.372Z,98436.09
2023-05-01T15:42:41.727Z,98436.75
2023-05-01T15:45:11.988Z,98427.03
2023-05-01T15:47:41.684Z,98432.22
2023-05-01T15:50:13.442Z,98427.72
2023-05-01T15:52:44.945Z,98434.88
2023-05-01T15:55:17.423Z,98434.59
2023-05-01T15:58:03.811Z,98437.25
2023-05-01T16:00:39.258Z,98438.94
2023-05-01T16:03:23.937Z,98436.44
2023-05-01T16:06:19.932Z,98444.22
2023-05-01T16:08:54.236Z,98432.13
2023-05-01T16:11:30.017Z,98439.53
2023-05-01T16:14:20.837Z,98440.22
2023-05-01T16:16:58.059Z,98440.44
2023-05-01T16:19:38.722Z,98446.53
2023-05-01T16:22:23.553Z,98458.19
2023-05-01T16:25:05.980Z,98452.34
2023-05-01T16:27:34.751Z,98454.97
2023-05-01T16:30:10.167Z,98456.84
2023-05-01T16:32:41.872Z,98468.84
2023-05-01T16:35:13.265Z,98470.22
2023-05-01T16:37:48.828Z,98476.03
2023-05-01T16:40:20.665Z,98478.22
2023-05-01T16:42:51.895Z,98492.31
2023-05-01T16:45:21.813Z,98515.25
2023-05-01T16:47:50.181Z,98522.09
2023-05-01T16:50:20.588Z,98502.78
2023-05-01T16:52:50.342Z,98505.16
2023-05-01T16:55:21.264Z,98504.06
2023-05-01T16:57:50.123Z,98487.59
2023-05-01T17:00:21.485Z,98468.88
2023-05-01T17:02:54.153Z,98451.66
2023-05-01T17:05:24.317Z,98450.34
2023-05-01T17:07:53.642Z,98450.41
2023-05-01T17:10:26.081Z,98467.31
2023-05-01T17:12:54.913Z,98477.94
2023-05-01T17:15:24.034Z,98486.59
2023-05-01T17:17:52.521Z,98492.94
2023-05-01T17:20:21.387Z,98493.53
2023-05-01T17:22:50.041Z,98492.25
2023-05-01T17:25:19.817Z,98492.38
2023-05-01T17:27:51.755Z,98492.13
2023-05-01T17:30:21.225Z,98500.06
2023-05-01T17:32:51.516Z,98502.78
2023-05-01T17:35:19.807Z,98501.44
2023-05-01T17:37:48.742Z,98505.28
2023-05-01T17:40:16.848Z,98511.59
2023-05-01T17:42:45.597Z,98519.84
2023-05-01T17:45:20.552Z,98507.25
2023-05-01T17:47:54.118Z,98513.13
2023-05-01T17:50:29.285Z,98516.50
2023-05-01T17:53:18.557Z,98511.56
2023-05-01T17:55:46.799Z,98520.28
2023-05-01T17:58:14.992Z,98511.66
2023-05-01T18:00:44.386Z,98520.94
2023-05-01T18:03:13.595Z,98515.47
2023-05-01T18:05:56.568Z,98524.69
2023-05-01T18:08:24.572Z,98530.59
2023-05-01T18:10:52.667Z,98526.13
2023-05-01T18:13:27.735Z,98531.16
2023-05-01T18:15:58.657Z,98527.25
2023-05-01T18:18:26.752Z,98538.31
2023-05-01T18:20:55.263Z,98540.13
2023-05-01T18:23:26.063Z,98547.97
2023-05-01T18:25:56.222Z,98550.06
2023-05-01T18:28:24.330Z,98556.50
2023-05-01T18:30:52.914Z,98555.78
2023-05-01T18:33:23.192Z,98556.34
2023-05-01T18:35:51.404Z,98562.22
2023-05-01T18:38:19.876Z,98563.94
2023-05-01T18:40:48.808Z,98562.81
2023-05-01T18:43:16.961Z,98560.28
2023-05-01T18:45:47.204Z,98565.06
2023-05-01T18:48:16.206Z,98572.47
2023-05-01T18:51:06.732Z,98574.84
2023-05-01T18:53:39.615Z,98576.41
2023-05-01T18:56:09.597Z,98580.31
2023-05-01T18:58:39.313Z,98573.44
2023-05-01T19:01:07.834Z,98579.59
2023-05-01T19:03:36.392Z,98578.31
2023-05-01T19:06:10.593Z,98583.53
2023-05-01T19:08:39.266Z,98589.94
2023-05-01T19:11:07.424Z,98584.06
2023-05-01T19:13:35.702Z,98589.69
2023-05-01T19:16:10.208Z,98596.13
2023-05-01T19:19:02.590Z,98595.44
2023-05-01T19:21:32.339Z,98595.19
2023-05-01T19:24:00.683Z,98602.25
2023-05-01T19:26:29.637Z,98610.28
2023-05-01T19:29:02.488Z,98606.66
2023-05-01T19:31:36.476Z,98614.47
2023-05-01T19:34:04.846Z,98604.28
2023-05-01T19:36:34.498Z,98605.66
2023-05-01T19:39:04.294Z,98616.97
2023-05-01T19:41:33.699Z,98615.00
2023-05-01T19:44:02.408Z,98620.88
2023-05-01T19:46:30.564Z,98639.94
2023-05-01T19:48:58.837Z,98633.38
2023-05-01T19:51:26.806Z,98642.06
2023-05-01T19:53:56.994Z,98627.53
2023-05-01T19:56:25.660Z,98634.13
2023-05-01T19:58:54.990Z,98636.84
2023-05-01T20:01:23.164Z,98636.97
2023-05-01T20:03:51.716Z,98647.47
2023-05-01T20:06:20.061Z,98656.28
2023-05-01T20:08:48.689Z,98654.25
2023-05-01T20:11:20.802Z,98663.50
2023-05-01T20:13:48.718Z,98667.00
2023-05-01T20:16:17.078Z,98666.41
2023-05-01T20:18:45.575Z,98664.31
2023-05-01T20:21:13.585Z,98675.94
2023-05-01T20:23:42.115Z,98687.84
2023-05-01T20:26:13.075Z,98677.59
2023-05-01T20:28:42.635Z,98688.22
2023-05-01T20:31:10.974Z,98688.53
2023-05-01T20:33:38.920Z,98686.59
2023-05-01T20:36:07.445Z,98690.75
2023-05-01T20:38:42.068Z,98698.88
2023-05-01T20:41:12.663Z,98701.25
2023-05-01T20:43:42.279Z,98696.06
2023-05-01T20:46:10.388Z,98697.00
2023-05-01T20:48:38.688Z,98704.34
2023-05-01T20:51:06.628Z,98698.50
2023-05-01T20:53:34.831Z,98703.41
2023-05-01T20:56:03.056Z,98699.91
2023-05-01T20:58:31.497Z,98708.72
2023-05-01T21:01:02.010Z,98696.66
2023-05-01T21:03:30.191Z,98707.22
2023-05-01T21:06:02.357Z,98708.06
2023-05-01T21:08:31.619Z,98709.72
2023-05-01T21:11:02.441Z,98711.63
2023-05-01T21:13:33.505Z,98719.47
2023-05-01T21:16:05.599Z,98708.00
2023-05-01T21:18:35.400Z,98723.69
2023-05-01T21:21:03.785Z,98713.91
2023-05-01T21:23:31.851Z,98715.50
2023-05-01T21:26:00.253Z,98713.06
2023-05-01T21:28:28.479Z,98719.09
2023-05-01T21:30:56.522Z,98718.16
2023-05-01T21:33:26.162Z,98719.94
2023-05-01T21:35:54.236Z,98719.72
2023-05-01T21:38:22.526Z,98721.03
2023-05-01T21:40:50.535Z,98721.72
2023-05-01T21:43:20.679Z,98718.16
2023-05-01T21:45:49.527Z,98718.88
2023-05-01T21:48:20.394Z,98720.81
2023-05-01T21:50:51.321Z,98720.31
2023-05-01T21:53:19.655Z,98723.25
2023-05-01T21:55:47.899Z,98721.84
2023-05-01T21:58:16.473Z,98722.19
2023-05-01T22:00:44.424Z,98721.84
2023-05-01T22:03:13.477Z,98717.50
2023-05-01T22:05:42.090Z,98721.84
2023-05-01T22:08:11.732Z,98727.25
2023-05-01T22:10:41.054Z,98725.59
2023-05-01T22:13:08.982Z,98723.06
2023-05-01T22:15:36.840Z,98730.31
2023-05-01T22:18:04.990Z,98734.28
2023-05-01T22:20:33.388Z,98729.94
2023-05-01T22:23:01.534Z,98736.56
2023-05-01T22:25:30.981Z,98734.66
2023-05-01T22:28:00.554Z,98735.59
2023-05-01T22:30:29.130Z,98734.41
2023-05-01T22:32:57.296Z,98735.84
2023-05-01T22:35:25.458Z,98741.84
2023-05-01T22:37:56.125Z,98742.84
2023-05-01T22:40:24.153Z,98747.03
2023-05-01T22:42:53.593Z,98750.50
2023-05-01T22:45:21.893Z,98753.13
2023-05-01T22:47:50.097Z,98757.31
2023-05-01T22:50:18.359Z,98756.47
2023-05-01T22:52:47.001Z,98755.75
2023-05-01T22:55:16.184Z,98758.16
2023-05-01T22:57:44.624Z,98766.47
2023-05-01T23:00:15.273Z,98765.00
2023-05-01T23:02:43.611Z,98764.22
2023-05-01T23:05:14.083Z,98763.63
2023-05-01T23:07:42.762Z,98770.44
2023-05-01T23:10:11.313Z,98774.47
2023-05-01T23:12:43.428Z,98775.44
2023-05-01T23:15:17.223Z,98775.41
2023-05-01T23:17:45.607Z,98781.50
2023-05-01T23:20:19.949Z,98787.28
2023-05-01T23:22:48.721Z,98784.97
2023-05-01T23:25:24.087Z,98783.06
2023-05-01T23:27:54.105Z,98782.81
2023-05-01T23:30:24.060Z,98783.28
2023-05-01T23:32:52.434Z,98783.72
2023-05-01T23:35:24.356Z,98779.13
2023-05-01T23:37:52.681Z,98780.38
2023-05-01T23:40:20.772Z,98780.66
2023-05-01T23:42:49.901Z,98779.19
2023-05-01T23:45:18.075Z,98784.38
2023-05-01T23:47:47.734Z,98785.88
2023-05-01T23:50:15.960Z,98781.41
2023-05-01T23:52:44.036Z,98777.81
2023-05-01T23:55:12.111Z,98791.72
2023-05-01T23:57:42.875Z,98789.47
